createdAt,value
2022-08-27T00:00:06.368Z,77.31
2022-08-27T00:01:17.045Z,77.61
2022-08-27T00:02:22.913Z,77.11
2022-08-27T00:03:31.562Z,77.52
2022-08-27T00:04:36.469Z,77.79
2022-08-27T00:05:39.604Z,77.89
2022-08-27T00:06:43.222Z,77.73
2022-08-27T00:07:50.082Z,77.46
2022-08-27T00:08:56.087Z,77.97
2022-08-27T00:10:00.406Z,77.52
2022-08-27T00:11:01.993Z,77.95
2022-08-27T00:12:08.019Z,77.55
2022-08-27T00:13:09.943Z,77.63
2022-08-27T00:14:13.011Z,77.68
2022-08-27T00:15:17.850Z,78.11
2022-08-27T00:16:21.669Z,78.29
2022-08-27T00:17:35.104Z,77.63
2022-08-27T00:18:38.845Z,78.10
2022-08-27T00:19:47.243Z,78.15
2022-08-27T00:20:53.433Z,77.61
2022-08-27T00:21:58.316Z,77.76
2022-08-27T00:23:06.443Z,77.75
2022-08-27T00:24:09.062Z,77.69
2022-08-27T00:25:12.301Z,77.72
2022-08-27T00:26:18.204Z,78.00
2022-08-27T00:27:23.430Z,77.88
2022-08-27T00:28:29.640Z,77.86
2022-08-27T00:29:31.799Z,77.75
2022-08-27T00:30:34.683Z,77.90
2022-08-27T00:31:36.740Z,77.96
2022-08-27T00:32:40.360Z,77.71
2022-08-27T00:33:43.431Z,77.87
2022-08-27T00:34:46.308Z,77.50
2022-08-27T00:35:48.342Z,77.75
2022-08-27T00:36:53.026Z,77.45
2022-08-27T00:37:56.275Z,77.71
2022-08-27T00:38:59.496Z,77.67
2022-08-27T00:40:01.648Z,77.31
2022-08-27T00:41:05.964Z,77.76
2022-08-27T00:42:08.267Z,77.89
2022-08-27T00:43:11.195Z,77.92
2022-08-27T00:44:13.344Z,77.81
2022-08-27T00:45:19.675Z,77.46
2022-08-27T00:46:25.252Z,77.33
2022-08-27T00:47:30.972Z,77.85
2022-08-27T00:48:35.892Z,77.56
2022-08-27T00:49:42.600Z,77.33
2022-08-27T00:50:47.932Z,77.23
2022-08-27T00:51:58.351Z,77.40
2022-08-27T00:53:05.222Z,77.39
2022-08-27T00:54:09.359Z,77.44
2022-08-27T00:55:17.956Z,77.10
2022-08-27T00:56:24.575Z,77.27
2022-08-27T00:57:28.097Z,76.97
2022-08-27T00:58:32.580Z,77.06
2022-08-27T00:59:35.205Z,76.91
2022-08-27T01:00:37.359Z,76.98
2022-08-27T01:01:59.920Z,76.62
2022-08-27T01:03:01.591Z,77.12
2022-08-27T01:04:06.425Z,76.75
2022-08-27T01:05:10.752Z,76.69
2022-08-27T01:06:16.291Z,77.00
2022-08-27T01:07:19.095Z,76.73
2022-08-27T01:08:25.768Z,76.54
2022-08-27T01:09:28.196Z,76.65
2022-08-27T01:10:30.998Z,76.52
2022-08-27T01:11:33.223Z,76.52
2022-08-27T01:12:37.327Z,76.22
2022-08-27T01:13:54.446Z,76.41
2022-08-27T01:15:04.739Z,76.65
2022-08-27T01:16:08.419Z,76.44
2022-08-27T01:17:12.169Z,76.57
2022-08-27T01:18:14.936Z,75.98
2022-08-27T01:19:28.697Z,76.00
2022-08-27T01:20:42.304Z,75.97
2022-08-27T01:21:51.196Z,76.36
2022-08-27T01:23:02.718Z,76.27
2022-08-27T01:24:13.856Z,75.86
2022-08-27T01:25:19.321Z,76.09
2022-08-27T01:26:22.887Z,76.04
2022-08-27T01:27:28.258Z,75.86
2022-08-27T01:28:37.820Z,75.70
2022-08-27T01:29:40.845Z,76.19
2022-08-27T01:30:44.144Z,75.92
2022-08-27T01:31:46.127Z,75.89
2022-08-27T01:32:50.944Z,76.03
2022-08-27T01:33:58.229Z,75.59
2022-08-27T01:35:02.236Z,75.66
2022-08-27T01:36:05.148Z,75.50
2022-08-27T01:37:08.791Z,75.57
2022-08-27T01:38:12.012Z,75.80
2022-08-27T01:39:26.928Z,75.71
2022-08-27T01:40:30.595Z,75.25
2022-08-27T01:41:33.373Z,75.19
2022-08-27T01:42:38.811Z,75.42
2022-08-27T01:43:41.367Z,75.55
2022-08-27T01:44:46.369Z,75.32
2022-08-27T01:45:50.713Z,75.18
2022-08-27T01:46:52.713Z,75.34
2022-08-27T01:47:56.763Z,75.16
2022-08-27T01:48:58.504Z,75.32
2022-08-27T01:50:02.347Z,74.93
2022-08-27T01:51:04.670Z,74.83
2022-08-27T01:52:07.429Z,74.83
2022-08-27T01:53:15.533Z,75.04
2022-08-27T01:54:19.844Z,75.02
2022-08-27T01:55:26.362Z,74.79
2022-08-27T01:56:33.372Z,74.60
2022-08-27T01:57:39.830Z,74.75
2022-08-27T01:58:43.631Z,74.62
2022-08-27T01:59:46.652Z,74.32
2022-08-27T02:00:52.039Z,74.51
2022-08-27T02:01:59.748Z,74.29
2022-08-27T02:03:02.892Z,74.02
2022-08-27T02:04:05.646Z,74.11
2022-08-27T02:05:08.400Z,74.05
2022-08-27T02:06:13.001Z,74.03
2022-08-27T02:07:14.636Z,73.94
2022-08-27T02:08:18.564Z,73.85
2022-08-27T02:09:20.257Z,73.41
2022-08-27T02:10:25.524Z,73.82
2022-08-27T02:11:27.666Z,73.62
2022-08-27T02:12:31.673Z,73.19
2022-08-27T02:13:34.179Z,73.14
2022-08-27T02:14:36.931Z,73.14
2022-08-27T02:15:39.668Z,72.71
2022-08-27T02:16:52.077Z,73.01
2022-08-27T02:17:56.151Z,72.76
2022-08-27T02:18:58.172Z,72.63
2022-08-27T02:20:01.406Z,72.04
2022-08-27T02:21:03.098Z,72.37
2022-08-27T02:22:05.889Z,72.31
2022-08-27T02:23:08.788Z,72.10
2022-08-27T02:24:11.535Z,72.18
2022-08-27T02:25:15.364Z,71.51
2022-08-27T02:26:18.074Z,71.98
2022-08-27T02:27:21.411Z,71.79
2022-08-27T02:28:26.064Z,71.47
2022-08-27T02:29:27.860Z,71.38
2022-08-27T02:30:32.649Z,71.48
2022-08-27T02:31:36.935Z,71.15
2022-08-27T02:32:39.952Z,71.11
2022-08-27T02:33:41.875Z,70.85
2022-08-27T02:34:45.988Z,70.82
2022-08-27T02:35:47.646Z,70.61
2022-08-27T02:36:50.243Z,71.03
2022-08-27T02:37:52.145Z,70.53
2022-08-27T02:38:55.828Z,70.59
2022-08-27T02:39:58.847Z,70.21
2022-08-27T02:41:01.490Z,70.28
2022-08-27T02:42:03.680Z,70.76
2022-08-27T02:43:06.752Z,70.49
2022-08-27T02:44:11.193Z,70.21
2022-08-27T02:45:17.704Z,70.16
2022-08-27T02:46:20.282Z,70.25
2022-08-27T02:47:21.948Z,69.99
2022-08-27T02:48:25.446Z,70.33
2022-08-27T02:49:27.232Z,70.00
2022-08-27T02:50:30.288Z,70.29
2022-08-27T02:51:31.970Z,70.02
2022-08-27T02:52:36.552Z,69.94
2022-08-27T02:53:39.726Z,69.89
2022-08-27T02:54:42.441Z,69.81
2022-08-27T02:55:44.988Z,70.38
2022-08-27T02:56:47.646Z,70.16
2022-08-27T02:57:49.553Z,70.35
2022-08-27T02:58:52.428Z,70.20
2022-08-27T02:59:55.400Z,70.05
2022-08-27T03:00:58.391Z,69.79
2022-08-27T03:02:00.148Z,70.17
2022-08-27T03:03:03.828Z,69.88
2022-08-27T03:04:05.467Z,69.86
2022-08-27T03:05:10.088Z,70.02
2022-08-27T03:06:11.830Z,70.41
2022-08-27T03:07:18.894Z,70.17
2022-08-27T03:08:20.844Z,69.78
2022-08-27T03:09:23.497Z,69.97
2022-08-27T03:10:25.298Z,69.96
2022-08-27T03:11:27.997Z,70.32
2022-08-27T03:12:29.613Z,70.49
2022-08-27T03:13:32.180Z,70.34
2022-08-27T03:14:33.782Z,70.26
2022-08-27T03:15:37.925Z,70.75
2022-08-27T03:16:39.894Z,70.21
2022-08-27T03:18:02.689Z,70.34
2022-08-27T03:19:06.649Z,70.57
2022-08-27T03:20:12.089Z,70.26
2022-08-27T03:21:19.308Z,70.33
2022-08-27T03:22:21.089Z,70.61
2022-08-27T03:23:26.900Z,70.68
2022-08-27T03:24:28.486Z,70.54
2022-08-27T03:25:32.127Z,70.98
2022-08-27T03:26:34.737Z,70.84
2022-08-27T03:27:37.591Z,70.59
2022-08-27T03:28:39.351Z,71.16
2022-08-27T03:29:41.902Z,70.88
2022-08-27T03:30:48.572Z,70.66
2022-08-27T03:31:51.125Z,70.66
2022-08-27T03:32:52.889Z,71.07
2022-08-27T03:33:57.172Z,70.75
2022-08-27T03:34:59.095Z,70.86
2022-08-27T03:36:01.689Z,71.30
2022-08-27T03:37:04.314Z,71.10
2022-08-27T03:38:05.956Z,70.89
2022-08-27T03:39:08.561Z,71.18
2022-08-27T03:40:11.176Z,71.24
2022-08-27T03:41:18.010Z,71.26
2022-08-27T03:42:19.599Z,70.98
2022-08-27T03:43:23.513Z,70.73
2022-08-27T03:44:25.202Z,70.93
2022-08-27T03:45:27.924Z,71.02
2022-08-27T03:46:31.083Z,71.13
2022-08-27T03:47:34.622Z,70.93
2022-08-27T03:48:36.395Z,70.95
2022-08-27T03:49:39.231Z,70.60
2022-08-27T03:50:43.214Z,70.75
2022-08-27T03:51:46.213Z,71.27
2022-08-27T03:52:48.301Z,70.76
2022-08-27T03:53:51.065Z,71.05
2022-08-27T03:54:53.000Z,70.84
2022-08-27T03:55:56.341Z,71.48
2022-08-27T03:56:57.917Z,71.41
2022-08-27T03:58:00.491Z,71.81
2022-08-27T03:59:02.085Z,71.79
2022-08-27T04:00:07.296Z,71.63
2022-08-27T04:01:09.385Z,71.60
2022-08-27T04:02:14.940Z,71.96
2022-08-27T04:03:16.675Z,71.90
2022-08-27T04:04:19.263Z,71.62
2022-08-27T04:05:22.465Z,71.97
2022-08-27T04:06:25.042Z,72.12
2022-08-27T04:07:26.721Z,71.50
2022-08-27T04:08:30.857Z,72.00
2022-08-27T04:09:32.445Z,71.94
2022-08-27T04:10:35.177Z,71.82
2022-08-27T04:11:37.059Z,71.70
2022-08-27T04:12:41.500Z,71.97
2022-08-27T04:13:43.924Z,71.67
2022-08-27T04:14:46.927Z,72.28
2022-08-27T04:15:51.159Z,71.95
2022-08-27T04:16:54.348Z,72.31
2022-08-27T04:17:57.492Z,71.95
2022-08-27T04:19:00.510Z,72.27
2022-08-27T04:20:24.976Z,72.06
2022-08-27T04:21:26.719Z,71.69
2022-08-27T04:22:28.595Z,72.01
2022-08-27T04:23:31.498Z,71.86
2022-08-27T04:24:34.875Z,72.17
2022-08-27T04:25:40.985Z,72.12
2022-08-27T04:26:45.627Z,72.12
2022-08-27T04:27:48.343Z,72.29
2022-08-27T04:28:51.211Z,71.91
2022-08-27T04:29:55.819Z,72.21
2022-08-27T04:30:57.507Z,72.09
2022-08-27T04:32:00.166Z,72.11
2022-08-27T04:33:03.118Z,72.21
2022-08-27T04:34:07.605Z,72.28
2022-08-27T04:35:11.672Z,71.98
2022-08-27T04:36:14.932Z,71.83
2022-08-27T04:37:23.360Z,71.83
2022-08-27T04:38:26.158Z,72.47
2022-08-27T04:39:31.599Z,71.99
2022-08-27T04:40:51.719Z,72.20
2022-08-27T04:41:57.593Z,72.03
2022-08-27T04:42:59.237Z,71.99
2022-08-27T04:44:05.092Z,71.94
2022-08-27T04:45:07.684Z,72.29
2022-08-27T04:46:10.275Z,71.89
2022-08-27T04:47:13.287Z,72.26
2022-08-27T04:48:19.443Z,71.98
2022-08-27T04:49:21.270Z,72.13
2022-08-27T04:50:24.379Z,72.10
2022-08-27T04:51:26.383Z,72.02
2022-08-27T04:52:29.792Z,72.24
2022-08-27T04:53:31.396Z,71.97
2022-08-27T04:54:34.407Z,71.75
2022-08-27T04:55:41.580Z,72.19
2022-08-27T04:56:44.161Z,72.00
2022-08-27T04:57:45.801Z,72.00
2022-08-27T04:58:48.441Z,72.44
2022-08-27T04:59:51.071Z,72.11
2022-08-27T05:00:55.876Z,72.01
2022-08-27T05:01:58.461Z,72.25
2022-08-27T05:03:00.120Z,71.77
2022-08-27T05:04:04.673Z,72.44
2022-08-27T05:05:08.312Z,71.94
2022-08-27T05:06:10.469Z,71.73
2022-08-27T05:07:13.019Z,72.04
2022-08-27T05:08:14.785Z,71.74
2022-08-27T05:09:18.786Z,71.61
2022-08-27T05:10:21.701Z,71.80
2022-08-27T05:11:28.315Z,72.20
2022-08-27T05:12:29.914Z,72.06
2022-08-27T05:13:32.912Z,71.85
2022-08-27T05:14:35.842Z,71.86
2022-08-27T05:15:48.833Z,71.94
2022-08-27T05:16:50.553Z,72.10
2022-08-27T05:17:53.641Z,72.38
2022-08-27T05:18:55.804Z,72.31
2022-08-27T05:19:59.856Z,72.28
2022-08-27T05:21:01.677Z,72.05
2022-08-27T05:22:04.444Z,71.91
2022-08-27T05:23:06.093Z,72.53
2022-08-27T05:24:08.920Z,72.23
2022-08-27T05:25:11.203Z,71.99
2022-08-27T05:26:13.955Z,72.65
2022-08-27T05:27:15.675Z,72.57
2022-08-27T05:28:21.381Z,72.13
2022-08-27T05:29:31.626Z,72.42
2022-08-27T05:30:36.791Z,72.53
2022-08-27T05:31:40.782Z,73.10
2022-08-27T05:32:42.898Z,72.91
2022-08-27T05:33:46.359Z,73.06
2022-08-27T05:34:48.165Z,73.33
2022-08-27T05:35:53.753Z,73.06
2022-08-27T05:36:55.336Z,73.43
2022-08-27T05:38:00.186Z,73.29
2022-08-27T05:39:04.537Z,73.75
2022-08-27T05:40:08.454Z,73.92
2022-08-27T05:41:12.772Z,73.86
2022-08-27T05:42:15.657Z,74.24
2022-08-27T05:43:18.522Z,74.27
2022-08-27T05:45:44.337Z,74.44
2022-08-27T05:46:46.902Z,74.54
2022-08-27T05:47:48.849Z,74.52
2022-08-27T05:48:52.633Z,74.43
2022-08-27T05:49:55.142Z,74.40
2022-08-27T05:50:59.203Z,74.70
2022-08-27T05:52:00.800Z,74.78
2022-08-27T05:53:03.396Z,74.66
2022-08-27T05:54:08.822Z,74.78
2022-08-27T05:55:12.347Z,74.74
2022-08-27T05:56:15.667Z,74.75
2022-08-27T05:57:18.251Z,74.96
2022-08-27T05:58:38.667Z,74.80
2022-08-27T05:59:58.888Z,74.81
2022-08-27T06:01:10.101Z,74.67
2022-08-27T06:02:13.170Z,74.40
2022-08-27T06:03:14.757Z,74.11
2022-08-27T06:04:18.851Z,74.44
2022-08-27T06:05:20.794Z,74.22
2022-08-27T06:06:24.931Z,73.95
2022-08-27T06:07:26.592Z,74.16
2022-08-27T06:08:29.257Z,74.25
2022-08-27T06:09:30.864Z,73.96
2022-08-27T06:10:33.613Z,73.72
2022-08-27T06:11:36.213Z,73.60
2022-08-27T06:12:39.023Z,73.72
2022-08-27T06:13:40.811Z,73.73
2022-08-27T06:14:46.251Z,73.91
2022-08-27T06:15:47.923Z,73.75
2022-08-27T06:16:50.754Z,73.35
2022-08-27T06:17:53.028Z,73.71
2022-08-27T06:18:57.524Z,73.15
2022-08-27T06:19:59.303Z,73.37
2022-08-27T06:21:02.061Z,73.36
2022-08-27T06:22:10.636Z,73.12
2022-08-27T06:23:13.642Z,72.97
2022-08-27T06:24:15.232Z,73.46
2022-08-27T06:25:18.103Z,72.95
2022-08-27T06:26:22.769Z,73.04
2022-08-27T06:27:25.537Z,73.13
2022-08-27T06:28:29.562Z,72.64
2022-08-27T06:29:34.983Z,72.85
2022-08-27T06:30:36.596Z,72.98
2022-08-27T06:31:40.684Z,72.58
2022-08-27T06:32:42.518Z,72.41
2022-08-27T06:33:46.305Z,72.16
2022-08-27T06:34:48.626Z,72.26
2022-08-27T06:35:51.522Z,72.34
2022-08-27T06:36:53.500Z,72.23
2022-08-27T06:37:57.445Z,72.17
2022-08-27T06:38:59.875Z,71.61
2022-08-27T06:40:02.467Z,71.53
2022-08-27T06:41:04.432Z,72.15
2022-08-27T06:42:07.685Z,71.45
2022-08-27T06:43:09.306Z,71.49
2022-08-27T06:44:13.054Z,71.19
2022-08-27T06:45:15.075Z,71.49
2022-08-27T06:46:19.968Z,71.47
2022-08-27T06:47:22.559Z,71.21
2022-08-27T06:48:24.409Z,71.06
2022-08-27T06:49:27.123Z,70.85
2022-08-27T06:50:28.829Z,70.86
2022-08-27T06:51:33.543Z,70.71
2022-08-27T06:52:35.235Z,71.04
2022-08-27T06:53:39.211Z,70.89
2022-08-27T06:54:40.857Z,70.88
2022-08-27T06:55:44.224Z,70.80
2022-08-27T06:56:46.219Z,70.17
2022-08-27T06:57:48.836Z,70.31
2022-08-27T06:58:52.651Z,70.12
2022-08-27T06:59:55.262Z,70.11
2022-08-27T07:00:57.192Z,70.38
2022-08-27T07:01:59.979Z,70.08
2022-08-27T07:03:03.889Z,70.12
2022-08-27T07:04:09.112Z,70.23
2022-08-27T07:05:11.924Z,69.99
2022-08-27T07:06:16.389Z,69.69
2022-08-27T07:07:31.742Z,70.03
2022-08-27T07:08:39.670Z,69.93
2022-08-27T07:09:42.218Z,69.42
2022-08-27T07:10:43.950Z,69.52
2022-08-27T07:11:46.532Z,69.85
2022-08-27T07:12:48.152Z,69.49
2022-08-27T07:13:51.360Z,69.58
2022-08-27T07:14:53.059Z,69.52
2022-08-27T07:15:56.091Z,69.60
2022-08-27T07:16:57.692Z,69.15
2022-08-27T07:18:00.484Z,69.16
2022-08-27T07:19:05.336Z,68.96
2022-08-27T07:20:09.541Z,69.22
2022-08-27T07:21:11.315Z,69.12
2022-08-27T07:22:14.221Z,69.22
2022-08-27T07:23:15.873Z,69.14
2022-08-27T07:24:19.790Z,69.10
2022-08-27T07:25:21.768Z,68.81
2022-08-27T07:26:24.918Z,68.73
2022-08-27T07:27:27.606Z,68.58
2022-08-27T07:28:30.740Z,68.80
2022-08-27T07:29:32.846Z,68.68
2022-08-27T07:30:37.463Z,68.69
2022-08-27T07:31:41.953Z,68.72
2022-08-27T07:32:44.673Z,68.27
2022-08-27T07:33:52.378Z,68.11
2022-08-27T07:34:55.851Z,68.30
2022-08-27T07:35:57.523Z,68.14
2022-08-27T07:37:00.144Z,68.16
2022-08-27T07:38:01.837Z,67.85
2022-08-27T07:39:04.899Z,67.91
2022-08-27T07:40:10.252Z,67.83
2022-08-27T07:41:15.431Z,68.06
2022-08-27T07:42:35.550Z,67.77
2022-08-27T07:43:56.400Z,67.28
2022-08-27T07:44:59.022Z,67.25
2022-08-27T07:46:02.066Z,67.80
2022-08-27T07:47:04.703Z,67.83
2022-08-27T07:48:07.373Z,67.96
2022-08-27T07:49:13.800Z,67.71
2022-08-27T07:50:16.385Z,67.90
2022-08-27T07:51:20.782Z,67.70
2022-08-27T07:52:26.449Z,67.66
2022-08-27T07:53:28.307Z,67.76
2022-08-27T07:54:30.939Z,67.62
2022-08-27T07:55:35.878Z,67.29
2022-08-27T07:56:38.471Z,67.39
2022-08-27T07:57:40.869Z,67.03
2022-08-27T07:58:44.023Z,67.07
2022-08-27T07:59:48.088Z,67.31
2022-08-27T08:00:49.865Z,66.84
2022-08-27T08:01:52.821Z,67.02
2022-08-27T08:02:54.542Z,67.03
2022-08-27T08:03:57.822Z,66.69
2022-08-27T08:04:59.848Z,67.00
2022-08-27T08:06:05.920Z,66.95
2022-08-27T08:07:07.534Z,66.67
2022-08-27T08:08:10.414Z,66.61
2022-08-27T08:09:12.373Z,66.51
2022-08-27T08:10:15.128Z,66.07
2022-08-27T08:11:18.763Z,66.04
2022-08-27T08:12:26.607Z,66.29
2022-08-27T08:13:30.079Z,65.79
2022-08-27T08:14:33.218Z,66.21
2022-08-27T08:15:35.541Z,65.91
2022-08-27T08:16:38.247Z,65.85
2022-08-27T08:17:40.372Z,65.56
2022-08-27T08:18:43.246Z,65.94
2022-08-27T08:19:57.220Z,65.45
2022-08-27T08:21:11.169Z,65.84
2022-08-27T08:22:12.917Z,65.76
2022-08-27T08:23:15.950Z,65.92
2022-08-27T08:24:18.274Z,65.53
2022-08-27T08:25:21.025Z,65.38
2022-08-27T08:26:24.198Z,65.27
2022-08-27T08:27:27.537Z,65.60
2022-08-27T08:28:31.461Z,65.41
2022-08-27T08:29:34.234Z,64.99
2022-08-27T08:30:35.950Z,65.10
2022-08-27T08:31:38.644Z,65.14
2022-08-27T08:32:40.363Z,64.79
2022-08-27T08:33:43.032Z,64.61
2022-08-27T08:34:44.647Z,64.30
2022-08-27T08:35:48.773Z,64.26
2022-08-27T08:36:54.916Z,64.54
2022-08-27T08:37:57.952Z,64.33
2022-08-27T08:38:59.701Z,64.13
2022-08-27T08:40:03.238Z,64.10
2022-08-27T08:41:07.232Z,63.68
2022-08-27T08:42:28.038Z,63.89
2022-08-27T08:43:33.499Z,64.13
2022-08-27T08:44:41.574Z,63.90
2022-08-27T08:45:45.158Z,63.99
2022-08-27T08:46:53.513Z,64.27
2022-08-27T08:48:04.942Z,64.41
2022-08-27T08:49:16.294Z,64.36
2022-08-27T08:50:26.175Z,64.28
2022-08-27T08:51:34.140Z,64.06
2022-08-27T08:52:43.629Z,64.04
2022-08-27T08:53:53.242Z,63.78
2022-08-27T08:54:58.164Z,63.75
2022-08-27T08:56:04.383Z,63.85
2022-08-27T08:57:18.667Z,63.80
2022-08-27T08:58:34.493Z,63.59
2022-08-27T08:59:38.767Z,63.57
2022-08-27T09:00:44.582Z,63.65
2022-08-27T09:01:49.669Z,63.34
2022-08-27T09:02:54.741Z,63.07
2022-08-27T09:04:00.424Z,63.07
2022-08-27T09:05:07.288Z,63.17
2022-08-27T09:06:15.276Z,63.39
2022-08-27T09:07:26.187Z,63.14
2022-08-27T09:08:37.922Z,63.00
2022-08-27T09:09:51.801Z,63.11
2022-08-27T09:11:00.812Z,63.16
2022-08-27T09:12:10.712Z,63.12
2022-08-27T09:13:21.492Z,63.18
2022-08-27T09:14:33.867Z,62.84
2022-08-27T09:15:38.052Z,62.94
2022-08-27T09:16:40.740Z,63.53
2022-08-27T09:17:42.909Z,63.10
2022-08-27T09:18:51.072Z,63.17
2022-08-27T09:19:53.175Z,63.38
2022-08-27T09:21:01.668Z,63.25
2022-08-27T09:22:19.032Z,63.01
2022-08-27T09:23:25.771Z,62.84
2022-08-27T09:24:38.192Z,62.74
2022-08-27T09:25:42.489Z,62.71
2022-08-27T09:26:45.772Z,62.85
2022-08-27T09:27:49.152Z,62.77
2022-08-27T09:29:15.735Z,62.85
2022-08-27T09:30:27.437Z,62.61
2022-08-27T09:31:36.636Z,63.09
2022-08-27T09:32:40.171Z,62.34
2022-08-27T09:33:56.445Z,62.59
2022-08-27T09:35:02.685Z,62.54
2022-08-27T09:36:08.683Z,62.83
2022-08-27T09:37:16.181Z,62.49
2022-08-27T09:38:26.855Z,62.58
2022-08-27T09:39:34.805Z,62.65
2022-08-27T09:40:41.373Z,62.28
2022-08-27T09:41:47.098Z,62.35
2022-08-27T09:42:53.126Z,62.36
2022-08-27T09:43:59.359Z,62.26
2022-08-27T09:45:01.986Z,62.03
2022-08-27T09:46:18.305Z,61.95
2022-08-27T09:47:20.961Z,62.00
2022-08-27T09:48:26.477Z,61.69
2022-08-27T09:49:29.664Z,61.69
2022-08-27T09:50:38.613Z,61.62
2022-08-27T09:51:47.280Z,61.40
2022-08-27T09:52:55.134Z,61.34
2022-08-27T09:54:00.815Z,61.20
2022-08-27T09:55:02.829Z,61.38
2022-08-27T09:56:10.597Z,60.95
2022-08-27T09:57:26.259Z,61.12
2022-08-27T09:58:48.252Z,60.95
2022-08-27T09:59:54.336Z,60.88
2022-08-27T10:01:02.841Z,60.82
2022-08-27T10:02:15.145Z,61.13
2022-08-27T10:03:22.524Z,60.93
2022-08-27T10:04:28.335Z,60.93
2022-08-27T10:05:36.443Z,60.68
2022-08-27T10:06:44.947Z,60.73
2022-08-27T10:07:53.761Z,60.69
2022-08-27T10:09:06.526Z,60.40
2022-08-27T10:10:17.859Z,60.73
2022-08-27T10:11:25.948Z,60.00
2022-08-27T10:12:34.976Z,60.00
2022-08-27T10:13:46.632Z,60.14
2022-08-27T10:14:52.555Z,60.01
2022-08-27T10:16:09.684Z,59.73
2022-08-27T10:17:20.243Z,59.71
2022-08-27T10:18:32.884Z,59.49
2022-08-27T10:19:54.220Z,59.65
2022-08-27T10:21:05.997Z,59.08
2022-08-27T10:22:27.277Z,59.37
2022-08-27T10:23:35.355Z,59.25
2022-08-27T10:24:51.859Z,59.35
2022-08-27T10:26:00.168Z,59.14
2022-08-27T10:27:10.467Z,59.35
2022-08-27T10:28:24.405Z,59.37
2022-08-27T10:29:38.356Z,59.06
2022-08-27T10:30:59.452Z,59.08
2022-08-27T10:32:11.715Z,59.04
2022-08-27T10:33:27.119Z,58.96
2022-08-27T10:34:43.347Z,59.08
2022-08-27T10:35:55.005Z,59.20
2022-08-27T10:37:07.954Z,58.98
2022-08-27T10:38:15.742Z,59.26
2022-08-27T10:39:40.059Z,59.03
2022-08-27T10:40:50.849Z,59.01
2022-08-27T10:42:11.514Z,58.92
2022-08-27T10:43:28.357Z,59.16
2022-08-27T10:44:52.390Z,59.12
2022-08-27T10:46:05.017Z,59.02
2022-08-27T10:47:16.591Z,58.86
2022-08-27T10:48:30.046Z,58.80
2022-08-27T10:49:43.629Z,58.88
2022-08-27T10:50:50.970Z,58.50
2022-08-27T10:52:04.222Z,58.73
2022-08-27T10:53:19.250Z,58.38
2022-08-27T10:54:28.196Z,58.48
2022-08-27T10:55:33.996Z,58.55
2022-08-27T10:56:40.319Z,58.29
2022-08-27T10:58:07.795Z,57.97
2022-08-27T10:59:25.499Z,58.04
2022-08-27T11:00:34.595Z,57.89
2022-08-27T11:01:48.524Z,57.56
2022-08-27T11:02:55.108Z,57.67
2022-08-27T11:04:04.118Z,57.62
2022-08-27T11:05:16.265Z,57.62
2022-08-27T11:06:25.779Z,57.51
2022-08-27T11:07:33.500Z,57.19
2022-08-27T11:08:41.819Z,57.20
2022-08-27T11:09:50.798Z,57.06
2022-08-27T11:11:13.694Z,56.96
2022-08-27T11:12:29.136Z,56.72
2022-08-27T11:13:34.113Z,56.65
2022-08-27T11:14:44.237Z,56.61
2022-08-27T11:15:49.227Z,56.37
2022-08-27T11:17:14.151Z,56.45
2022-08-27T11:18:22.206Z,56.36
2022-08-27T11:19:32.635Z,56.32
2022-08-27T11:20:41.291Z,56.17
2022-08-27T11:21:48.354Z,56.28
2022-08-27T11:22:56.126Z,56.27
2022-08-27T11:24:02.630Z,56.05
2022-08-27T11:25:15.004Z,56.12
2022-08-27T11:26:16.691Z,55.85
2022-08-27T11:27:24.880Z,55.77
2022-08-27T11:28:37.308Z,56.06
2022-08-27T11:29:49.540Z,55.83
2022-08-27T11:31:00.687Z,55.55
2022-08-27T11:32:11.992Z,55.50
2022-08-27T11:33:21.244Z,55.40
2022-08-27T11:34:27.430Z,55.17
2022-08-27T11:35:41.791Z,55.01
2022-08-27T11:37:06.031Z,55.07
2022-08-27T11:38:30.042Z,55.25
2022-08-27T11:39:51.869Z,54.83
2022-08-27T11:41:06.568Z,54.59
2022-08-27T11:42:15.013Z,54.38
2022-08-27T11:43:20.467Z,54.67
2022-08-27T11:44:26.643Z,54.05
2022-08-27T11:45:31.141Z,53.98
2022-08-27T11:46:44.719Z,53.57
2022-08-27T11:47:56.761Z,53.55
2022-08-27T11:49:01.714Z,53.27
2022-08-27T11:50:08.515Z,53.52
2022-08-27T11:51:14.311Z,53.58
2022-08-27T11:52:25.092Z,53.82
2022-08-27T11:53:30.735Z,53.27
2022-08-27T11:54:49.204Z,53.48
2022-08-27T11:55:50.773Z,53.19
2022-08-27T11:56:53.494Z,53.10
2022-08-27T11:58:08.761Z,53.15
2022-08-27T11:59:21.293Z,52.74
2022-08-27T12:00:34.380Z,53.30
2022-08-27T12:01:38.559Z,53.00
2022-08-27T12:02:40.903Z,52.94
2022-08-27T12:03:44.924Z,52.79
2022-08-27T12:04:47.482Z,52.51
2022-08-27T12:06:11.167Z,52.84
2022-08-27T12:07:29.281Z,52.77
2022-08-27T12:08:35.141Z,52.54
2022-08-27T12:09:54.169Z,52.60
2022-08-27T12:11:12.581Z,52.69
2022-08-27T12:12:20.575Z,52.85
2022-08-27T12:13:29.515Z,52.29
2022-08-27T12:14:44.563Z,52.26
2022-08-27T12:16:04.610Z,52.44
2022-08-27T12:17:14.382Z,51.90
2022-08-27T12:18:36.629Z,52.50
2022-08-27T12:19:56.304Z,52.26
2022-08-27T12:21:10.547Z,52.33
2022-08-27T12:22:25.217Z,51.99
2022-08-27T12:23:42.599Z,52.50
2022-08-27T12:24:52.027Z,52.54
2022-08-27T12:26:00.625Z,52.31
2022-08-27T12:27:16.920Z,52.00
2022-08-27T12:28:26.855Z,52.20
2022-08-27T12:29:41.022Z,52.36
2022-08-27T12:30:50.317Z,52.45
2022-08-27T12:32:01.469Z,52.12
2022-08-27T12:33:12.752Z,52.33
2022-08-27T12:34:16.592Z,52.28
2022-08-27T12:35:27.778Z,52.05
2022-08-27T12:36:33.476Z,52.29
2022-08-27T12:37:40.436Z,51.87
2022-08-27T12:38:50.643Z,52.37
2022-08-27T12:39:56.522Z,52.13
2022-08-27T12:41:03.825Z,51.99
2022-08-27T12:42:14.226Z,51.91
2022-08-27T12:43:20.727Z,52.08
2022-08-27T12:44:28.558Z,51.96
2022-08-27T12:45:30.824Z,52.14
2022-08-27T12:46:34.040Z,51.88
2022-08-27T12:47:42.671Z,51.37
2022-08-27T12:49:35.855Z,51.70
2022-08-27T12:50:30.547Z,51.24
2022-08-27T12:51:36.141Z,51.58
2022-08-27T12:52:54.498Z,51.80
2022-08-27T12:54:05.631Z,51.37
2022-08-27T12:55:18.513Z,51.48
2022-08-27T12:56:35.551Z,51.04
2022-08-27T12:57:45.033Z,51.07
2022-08-27T12:58:57.238Z,51.25
2022-08-27T13:00:10.049Z,50.83
2022-08-27T13:01:34.188Z,51.38
2022-08-27T13:03:13.672Z,51.08
2022-08-27T13:04:21.473Z,51.09
2022-08-27T13:05:26.775Z,50.49
2022-08-27T13:06:32.975Z,50.91
2022-08-27T13:07:41.215Z,50.59
2022-08-27T13:08:43.849Z,50.72
2022-08-27T13:09:46.380Z,50.26
2022-08-27T13:10:48.965Z,50.65
2022-08-27T13:11:55.602Z,50.15
2022-08-27T13:13:04.327Z,50.57
2022-08-27T13:14:09.613Z,50.45
2022-08-27T13:15:15.617Z,50.25
2022-08-27T13:16:20.417Z,50.01
2022-08-27T13:17:23.365Z,50.60
2022-08-27T13:18:29.974Z,50.36
2022-08-27T13:19:36.541Z,50.21
2022-08-27T13:20:41.500Z,50.04
2022-08-27T13:21:56.230Z,49.92
2022-08-27T13:22:57.882Z,50.02
2022-08-27T13:24:02.915Z,50.20
2022-08-27T13:25:05.769Z,50.33
2022-08-27T13:26:10.416Z,50.49
2022-08-27T13:27:12.353Z,49.94
2022-08-27T13:28:16.977Z,50.10
2022-08-27T13:29:19.781Z,50.29
2022-08-27T13:30:35.124Z,50.79
2022-08-27T13:31:39.157Z,50.33
2022-08-27T13:32:41.622Z,50.13
2022-08-27T13:33:45.469Z,50.04
2022-08-27T13:34:47.927Z,50.13
2022-08-27T13:35:52.355Z,50.50
2022-08-27T13:36:58.142Z,49.87
2022-08-27T13:38:03.225Z,50.04
2022-08-27T13:39:07.188Z,50.52
2022-08-27T13:40:10.623Z,49.95
2022-08-27T13:41:23.259Z,50.23
2022-08-27T13:42:27.031Z,50.09
2022-08-27T13:43:35.307Z,50.08
2022-08-27T13:44:41.046Z,49.98
2022-08-27T13:45:51.409Z,50.17
2022-08-27T13:47:00.755Z,49.61
2022-08-27T13:48:04.177Z,49.66
2022-08-27T13:49:08.972Z,49.77
2022-08-27T13:50:17.918Z,49.53
2022-08-27T13:51:29.187Z,50.06
2022-08-27T13:52:34.099Z,49.81
2022-08-27T13:53:55.617Z,50.10
2022-08-27T13:55:05.693Z,49.88
2022-08-27T13:56:07.889Z,50.27
2022-08-27T13:57:13.456Z,49.30
2022-08-27T13:58:19.731Z,49.45
2022-08-27T13:59:26.484Z,49.38
2022-08-27T14:00:31.678Z,50.05
2022-08-27T14:01:34.407Z,49.49
2022-08-27T14:02:36.231Z,49.08
2022-08-27T14:03:49.000Z,49.19
2022-08-27T14:05:05.745Z,48.97
2022-08-27T14:06:08.341Z,49.02
2022-08-27T14:07:15.280Z,49.71
2022-08-27T14:08:19.310Z,48.93
2022-08-27T14:09:25.989Z,48.89
2022-08-27T14:10:32.706Z,48.80
2022-08-27T14:11:35.450Z,48.91
2022-08-27T14:12:41.097Z,48.89